^^
Saratoga-Weather Station Historical Data
Daily Summary for November 23, 2021 Units:  Metric    English   Both
Daily Weekly Monthly Yearly Custom
  High: Low: Average:
Temperature: 6.9 °C -0.4 °C 4.7 °C
Dew Point: 3.9 °C -1.7 °C 1.6 °C
Humidity: 91% 67% 81%
Wind Speed: 11.1km/h 0km/h 1.6km/h
Wind Gust: 19.3km/h - -
Wind- - ESE
Pressure: 1029.5 hPa 1026.8 hPa -
Precipitation: 0.0 mm    
Historical Graphs
 
 
Tabular Data for November 23, 2021
Time Temperature Dew Point Pressure Wind Wind Speed Wind Gust Humidity Rainfall Rate (Hourly) solar
08:15 -0.4 °C -1.7 °C 1029.1 hPa Calm     91% 0.0 mm 9 W/m2
08:20 -0.4 °C -1.7 °C 1029.1 hPa Calm   1.6 km/h 91% 0.0 mm 9 W/m2
08:25 -0.4 °C -1.7 °C 1029.1 hPa WNW 3.2 km/h 3.2 km/h 91% 0.0 mm 11 W/m2
08:30 -0.3 °C -1.6 °C 1029.1 hPa Calm   3.2 km/h 91% 0.0 mm 11 W/m2
08:35 -0.2 °C -1.5 °C 1029.5 hPa East 1.4 km/h 1.6 km/h 91% 0.0 mm 12 W/m2
08:40 -0.1 °C -1.5 °C 1029.5 hPa Calm   6.4 km/h 90% 0.0 mm 12 W/m2
08:45 0.1 °C -1.3 °C 1029.5 hPa NW 1.4 km/h 4.8 km/h 90% 0.0 mm 14 W/m2
08:50 0.2 °C -1.4 °C 1029.1 hPa Calm   6.4 km/h 89% 0.0 mm 14 W/m2
08:55 0.2 °C -1.4 °C 1029.1 hPa West 3.2 km/h 3.2 km/h 89% 0.0 mm 16 W/m2
09:00 0.2 °C -1.4 °C 1029.5 hPa Calm   3.2 km/h 89% 0.0 mm 16 W/m2
09:05 0.3 °C -1.5 °C 1029.5 hPa NW 1.4 km/h 4.8 km/h 88% 0.0 mm 16 W/m2
09:10 0.4 °C -1.4 °C 1029.5 hPa Calm     88% 0.0 mm 18 W/m2
09:15 0.5 °C -1.3 °C 1029.5 hPa Calm   1.6 km/h 88% 0.0 mm 18 W/m2
09:20 0.5 °C -1.3 °C 1029.5 hPa Calm     88% 0.0 mm 18 W/m2
09:25 0.6 °C -1.2 °C 1029.5 hPa Calm     88% 0.0 mm 19 W/m2
09:30 0.6 °C -1.2 °C 1029.5 hPa Calm   1.6 km/h 88% 0.0 mm 19 W/m2
09:35 0.6 °C -1.2 °C 1029.5 hPa Calm   1.6 km/h 88% 0.0 mm 21 W/m2
09:40 0.6 °C -1.2 °C 1029.1 hPa Calm   4.8 km/h 88% 0.0 mm 23 W/m2
09:45 0.7 °C -1.1 °C 1029.1 hPa ENE 3.2 km/h 6.4 km/h 88% 0.0 mm 21 W/m2
09:50 0.9 °C -0.9 °C 1029.1 hPa East 1.4 km/h 6.4 km/h 88% 0.0 mm 21 W/m2
09:55 1.1 °C -0.8 °C 1029.5 hPa East 1.4 km/h 4.8 km/h 87% 0.0 mm 26 W/m2
10:00 1.2 °C -0.7 °C 1029.5 hPa Calm   6.4 km/h 87% 0.0 mm 23 W/m2
10:05 1.3 °C -0.8 °C 1029.5 hPa ENE 3.2 km/h 4.8 km/h 86% 0.0 mm 23 W/m2
10:10 1.4 °C -0.8 °C 1029.5 hPa Calm   1.6 km/h 85% 0.0 mm 26 W/m2
10:15 1.4 °C -0.8 °C 1029.5 hPa Calm     85% 0.0 mm 32 W/m2
10:20 1.4 °C -0.8 °C 1029.5 hPa ENE 1.4 km/h 3.2 km/h 85% 0.0 mm 28 W/m2
10:25 1.5 °C -0.7 °C 1029.5 hPa Calm   1.6 km/h 85% 0.0 mm 32 W/m2
10:30 1.6 °C -0.6 °C 1029.5 hPa Calm   4.8 km/h 85% 0.0 mm 26 W/m2
10:35 1.8 °C -0.6 °C 1029.5 hPa East 1.4 km/h 1.6 km/h 84% 0.0 mm 26 W/m2
10:40 2 °C -0.4 °C 1029.5 hPa Calm   3.2 km/h 84% 0.0 mm 25 W/m2
10:46 2.2 °C -0.4 °C 1029.5 hPa Calm   3.2 km/h 83% 0.0 mm 25 W/m2
10:51 2.3 °C -0.5 °C 1029.5 hPa NNW 1.4 km/h 4.8 km/h 82% 0.0 mm 30 W/m2
10:56 2.4 °C -0.4 °C 1029.5 hPa Calm   4.8 km/h 82% 0.0 mm 28 W/m2
11:01 2.6 °C -0.3 °C 1029.5 hPa Calm   4.8 km/h 81% 0.0 mm 25 W/m2
11:06 2.7 °C -0.2 °C 1029.5 hPa Calm   3.2 km/h 81% 0.0 mm 28 W/m2
11:11 2.8 °C -0.3 °C 1029.5 hPa Calm   4.8 km/h 80% 0.0 mm 32 W/m2
11:16 3 °C -0.3 °C 1029.5 hPa Calm   4.8 km/h 79% 0.0 mm 33 W/m2
11:21 3.2 °C -0.3 °C 1029.5 hPa Calm   6.4 km/h 78% 0.0 mm 39 W/m2
11:26 3.4 °C -0.2 °C 1029.5 hPa East 6.4 km/h 6.4 km/h 77% 0.0 mm 25 W/m2
11:31 3.6 °C -0.2 °C 1029.5 hPa North 4.7 km/h 9.7 km/h 76% 0.0 mm 39 W/m2
11:36 3.8 °C -0.2 °C 1029.5 hPa Calm   6.4 km/h 75% 0.0 mm 30 W/m2
11:41 4.1 °C -0.3 °C 1029.5 hPa East 6.4 km/h 8 km/h 73% 0.0 mm 30 W/m2
11:46 4.3 °C -0.3 °C 1029.5 hPa East 6.4 km/h 8 km/h 72% 0.0 mm 25 W/m2
11:51 4.5 °C -0.3 °C 1029.1 hPa ENE 3.2 km/h 9.7 km/h 71% 0.0 mm 26 W/m2
11:56 4.6 °C -0.2 °C 1029.1 hPa ESE 4.7 km/h 8 km/h 71% 0.0 mm 32 W/m2
12:01 4.7 °C -0.1 °C 1029.1 hPa ESE 1.4 km/h 4.8 km/h 71% 0.0 mm 47 W/m2
12:06 4.8 °C 0.2 °C 1029.1 hPa North 6.4 km/h 9.7 km/h 72% 0.0 mm 30 W/m2
12:11 4.9 °C 0.3 °C 1029.1 hPa North 3.2 km/h 9.7 km/h 72% 0.0 mm 25 W/m2
12:16 5 °C 0.2 °C 1028.8 hPa NNE 1.4 km/h 6.4 km/h 71% 0.0 mm 26 W/m2
12:21 5.1 °C 0.3 °C 1028.8 hPa East 3.2 km/h 4.8 km/h 71% 0.0 mm 33 W/m2
12:26 5.1 °C 0.1 °C 1028.8 hPa ENE 1.4 km/h 9.7 km/h 70% 0.0 mm 25 W/m2
12:31 5.2 °C 0.2 °C 1028.8 hPa NE 7.9 km/h 9.7 km/h 70% 0.0 mm 26 W/m2
12:36 5.3 °C 0.1 °C 1028.8 hPa Calm   11.3 km/h 69% 0.0 mm 26 W/m2
12:41 5.4 °C 0.2 °C 1028.5 hPa SE 3.2 km/h 4.8 km/h 69% 0.0 mm 30 W/m2
12:46 5.5 °C 0.3 °C 1028.5 hPa NE 3.2 km/h 8 km/h 69% 0.0 mm 30 W/m2
12:51 5.6 °C 0.4 °C 1028.5 hPa Calm   4.8 km/h 69% 0.0 mm 32 W/m2
12:56 5.7 °C 0.3 °C 1028.5 hPa ESE 4.7 km/h 9.7 km/h 68% 0.0 mm 26 W/m2
13:01 5.8 °C 0.4 °C 1028.5 hPa ENE 6.4 km/h 6.4 km/h 68% 0.0 mm 26 W/m2
13:06 5.8 °C 0.6 °C 1028.5 hPa ENE 3.2 km/h 14.5 km/h 69% 0.0 mm 25 W/m2
13:11 5.9 °C 0.6 °C 1028.5 hPa NE 6.4 km/h 9.7 km/h 69% 0.0 mm 35 W/m2
13:16 6 °C 0.7 °C 1028.5 hPa East 11.1 km/h 14.5 km/h 69% 0.0 mm 26 W/m2
13:21 6.1 °C 0.6 °C 1028.5 hPa ENE 7.9 km/h 19.3 km/h 68% 0.0 mm 25 W/m2
13:26 6.2 °C 0.7 °C 1028.1 hPa ENE 7.9 km/h 12.9 km/h 68% 0.0 mm 25 W/m2
13:31 6.3 °C 0.8 °C 1028.1 hPa ENE 3.2 km/h 19.3 km/h 68% 0.0 mm 25 W/m2
13:36 6.4 °C 0.9 °C 1028.5 hPa SE 1.4 km/h 6.4 km/h 68% 0.0 mm 51 W/m2
13:41 6.4 °C 0.9 °C 1028.1 hPa East 6.4 km/h 9.7 km/h 68% 0.0 mm 26 W/m2
13:46 6.4 °C 0.7 °C 1028.1 hPa ENE 7.9 km/h 9.7 km/h 67% 0.0 mm 26 W/m2
13:51 6.4 °C 0.7 °C 1028.1 hPa ENE 1.4 km/h 3.2 km/h 67% 0.0 mm 72 W/m2
13:56 6.4 °C 0.9 °C 1028.1 hPa ENE 4.7 km/h 9.7 km/h 68% 0.0 mm 33 W/m2
14:01 6.4 °C 0.7 °C 1028.1 hPa ESE 6.4 km/h 9.7 km/h 67% 0.0 mm 25 W/m2
14:06 6.6 °C 1.1 °C 1028.1 hPa NNE 3.2 km/h 9.7 km/h 68% 0.0 mm 25 W/m2
14:11 6.6 °C 0.9 °C 1028.1 hPa NE 3.2 km/h 8 km/h 67% 0.0 mm 25 W/m2
14:16 6.6 °C 1.1 °C 1028.1 hPa ENE 1.4 km/h 14.5 km/h 68% 0.0 mm 25 W/m2
14:21 6.6 °C 1.3 °C 1027.8 hPa East 1.4 km/h 4.8 km/h 69% 0.0 mm 23 W/m2
14:26 6.6 °C 1.3 °C 1027.8 hPa North 3.2 km/h 14.5 km/h 69% 0.0 mm 23 W/m2
14:31 6.7 °C 1.4 °C 1027.8 hPa Calm   1.6 km/h 69% 0.0 mm 23 W/m2
14:36 6.7 °C 1.4 °C 1027.8 hPa ENE 4.7 km/h 4.8 km/h 69% 0.0 mm 21 W/m2
14:41 6.7 °C 1.4 °C 1027.8 hPa ESE 1.4 km/h 8 km/h 69% 0.0 mm 21 W/m2
14:46 6.7 °C 1.4 °C 1027.8 hPa Calm   4.8 km/h 69% 0.0 mm 21 W/m2
14:51 6.7 °C 1.6 °C 1027.8 hPa NE 3.2 km/h 3.2 km/h 70% 0.0 mm 21 W/m2
14:56 6.7 °C 1.6 °C 1027.8 hPa SSE 1.4 km/h 4.8 km/h 70% 0.0 mm 21 W/m2
15:01 6.7 °C 1.6 °C 1027.8 hPa Calm   4.8 km/h 70% 0.0 mm 19 W/m2
15:06 6.7 °C 1.6 °C 1027.4 hPa ENE 3.2 km/h 6.4 km/h 70% 0.0 mm 19 W/m2
15:11 6.8 °C 1.7 °C 1027.8 hPa NNE 1.4 km/h 6.4 km/h 70% 0.0 mm 19 W/m2
15:16 6.8 °C 1.7 °C 1027.8 hPa Calm   1.6 km/h 70% 0.0 mm 19 W/m2
15:21 6.8 °C 1.7 °C 1027.4 hPa NNW 1.4 km/h 3.2 km/h 70% 0.0 mm 19 W/m2
15:26 6.7 °C 1.6 °C 1027.4 hPa Calm   3.2 km/h 70% 0.0 mm 18 W/m2
15:31 6.7 °C 1.6 °C 1027.4 hPa NE 1.4 km/h 1.6 km/h 70% 0.0 mm 18 W/m2
15:36 6.7 °C 1.8 °C 1027.4 hPa East 1.4 km/h 6.4 km/h 71% 0.0 mm 18 W/m2
15:41 6.7 °C 1.8 °C 1027.4 hPa NE 1.4 km/h 6.4 km/h 71% 0.0 mm 18 W/m2
15:46 6.8 °C 1.9 °C 1027.4 hPa SSE 1.4 km/h 6.4 km/h 71% 0.0 mm 16 W/m2
15:51 6.8 °C 2.1 °C 1027.4 hPa ENE 1.4 km/h 9.7 km/h 72% 0.0 mm 16 W/m2
15:56 6.8 °C 2.1 °C 1027.4 hPa ENE 1.4 km/h 4.8 km/h 72% 0.0 mm 16 W/m2
16:01 6.8 °C 2.3 °C 1027.4 hPa ENE 4.7 km/h 6.4 km/h 73% 0.0 mm 19 W/m2
16:06 6.8 °C 2.3 °C 1027.4 hPa ESE 1.4 km/h 3.2 km/h 73% 0.0 mm 25 W/m2
16:11 6.8 °C 2.5 °C 1027.8 hPa East 1.4 km/h 9.7 km/h 74% 0.0 mm 26 W/m2
16:16 6.8 °C 2.5 °C 1027.4 hPa East 3.2 km/h 11.3 km/h 74% 0.0 mm 23 W/m2
16:21 6.9 °C 2.6 °C 1027.4 hPa East 6.4 km/h 6.4 km/h 74% 0.0 mm 18 W/m2
16:26 6.8 °C 2.5 °C 1027.4 hPa Calm   11.3 km/h 74% 0.0 mm 11 W/m2
16:31 6.7 °C 2.6 °C 1027.4 hPa ENE 3.2 km/h 6.4 km/h 75% 0.0 mm 9 W/m2
16:36 6.7 °C 2.6 °C 1027.4 hPa SE 1.4 km/h 4.8 km/h 75% 0.0 mm 7 W/m2
16:41 6.5 °C 2.6 °C 1027.4 hPa ESE 1.4 km/h 4.8 km/h 76% 0.0 mm 5 W/m2
16:51 6.3 °C 2.6 °C 1027.4 hPa ENE 3.2 km/h 3.2 km/h 77% 0.0 mm 0 W/m2
16:56 6.2 °C 2.5 °C 1027.4 hPa Calm   3.2 km/h 77% 0.0 mm 0 W/m2
17:01 6.1 °C 2.6 °C 1027.4 hPa Calm   3.2 km/h 78% 0.0 mm 0 W/m2
17:06 5.9 °C 2.4 °C 1027.4 hPa Calm   1.6 km/h 78% 0.0 mm 0 W/m2
17:11 5.8 °C 2.4 °C 1027.4 hPa Calm     79% 0.0 mm 0 W/m2
17:21 5.6 °C 2.4 °C 1027.4 hPa Calm   1.6 km/h 80% 0.0 mm 0 W/m2
17:26 5.6 °C 2.6 °C 1027.4 hPa Calm     81% 0.0 mm 0 W/m2
17:31 5.5 °C 2.7 °C 1027.4 hPa Calm     82% 0.0 mm 0 W/m2
17:36 5.4 °C 2.7 °C 1027.4 hPa SSE 3.2 km/h 6.4 km/h 83% 0.0 mm 0 W/m2
17:42 5.5 °C 3 °C 1027.4 hPa ENE 1.4 km/h 6.4 km/h 84% 0.0 mm 0 W/m2
17:47 5.6 °C 3.1 °C 1027.4 hPa Calm   4.8 km/h 84% 0.0 mm 0 W/m2
17:52 5.6 °C 3.1 °C 1027.4 hPa NE 1.4 km/h 3.2 km/h 84% 0.0 mm 0 W/m2
17:57 5.6 °C 3.1 °C 1027.4 hPa West 1.4 km/h 4.8 km/h 84% 0.0 mm 0 W/m2
18:02 5.6 °C 3.1 °C 1027.4 hPa ENE 1.4 km/h 4.8 km/h 84% 0.0 mm 0 W/m2
18:07 5.6 °C 3.1 °C 1027.4 hPa Calm     84% 0.0 mm 0 W/m2
18:12 5.5 °C 3 °C 1027.4 hPa West 1.4 km/h 3.2 km/h 84% 0.0 mm 0 W/m2
18:17 5.3 °C 2.8 °C 1027.4 hPa WNW 1.4 km/h 3.2 km/h 84% 0.0 mm 0 W/m2
18:22 5.3 °C 3 °C 1027.4 hPa ENE 1.4 km/h 4.8 km/h 85% 0.0 mm 0 W/m2
18:27 5.3 °C 3.1 °C 1027.8 hPa Calm   4.8 km/h 86% 0.0 mm 0 W/m2
18:32 5.3 °C 3.1 °C 1027.8 hPa Calm   3.2 km/h 86% 0.0 mm 0 W/m2
18:37 5.2 °C 3.1 °C 1027.8 hPa East 1.4 km/h 4.8 km/h 86% 0.0 mm 0 W/m2
18:42 5.2 °C 3.1 °C 1027.8 hPa ENE 1.4 km/h 1.6 km/h 86% 0.0 mm 0 W/m2
18:47 5.3 °C 3.1 °C 1027.8 hPa Calm   3.2 km/h 86% 0.0 mm 0 W/m2
18:52 5.3 °C 3.1 °C 1027.8 hPa Calm   3.2 km/h 86% 0.0 mm 0 W/m2
18:57 5.3 °C 3.1 °C 1027.8 hPa Calm   4.8 km/h 86% 0.0 mm 0 W/m2
19:02 5.3 °C 3.1 °C 1027.8 hPa Calm   1.6 km/h 86% 0.0 mm 0 W/m2
19:07 5.3 °C 3.1 °C 1027.8 hPa Calm   6.4 km/h 86% 0.0 mm 0 W/m2
19:12 5.2 °C 3.1 °C 1027.8 hPa Calm     86% 0.0 mm 0 W/m2
19:17 5.2 °C 3.1 °C 1027.8 hPa Calm     86% 0.0 mm 0 W/m2
19:27 5.1 °C 3.1 °C 1027.8 hPa Calm   1.6 km/h 87% 0.0 mm 0 W/m2
19:32 5.1 °C 3.1 °C 1027.8 hPa Calm     87% 0.0 mm 0 W/m2
19:42 5.2 °C 3.2 °C 1027.8 hPa Calm     87% 0.0 mm 0 W/m2
19:47 5.2 °C 3.2 °C 1027.8 hPa Calm     87% 0.0 mm 0 W/m2
19:52 5.2 °C 3.2 °C 1027.8 hPa East 1.4 km/h 3.2 km/h 87% 0.0 mm 0 W/m2
19:57 5.2 °C 3.2 °C 1027.8 hPa Calm     87% 0.0 mm 0 W/m2
20:02 5.2 °C 3.2 °C 1027.8 hPa Calm   4.8 km/h 87% 0.0 mm 0 W/m2
20:07 5.3 °C 3.3 °C 1027.8 hPa Calm   1.6 km/h 87% 0.0 mm 0 W/m2
20:12 5.3 °C 3.3 °C 1027.8 hPa Calm   4.8 km/h 87% 0.0 mm 0 W/m2
20:17 5.3 °C 3.3 °C 1027.8 hPa Calm     87% 0.0 mm 0 W/m2
20:22 5.3 °C 3.3 °C 1027.8 hPa Calm     87% 0.0 mm 0 W/m2
20:27 5.4 °C 3.4 °C 1027.8 hPa Calm     87% 0.0 mm 0 W/m2
20:33 5.4 °C 3.6 °C 1027.8 hPa Calm     88% 0.0 mm 0 W/m2
20:38 5.4 °C 3.6 °C 1027.4 hPa Calm     88% 0.0 mm 0 W/m2
20:43 5.5 °C 3.7 °C 1027.4 hPa Calm     88% 0.0 mm 0 W/m2
20:48 5.6 °C 3.8 °C 1027.4 hPa Calm     88% 0.0 mm 0 W/m2
20:53 5.6 °C 3.8 °C 1027.4 hPa NE 3.2 km/h 3.2 km/h 88% 0.0 mm 0 W/m2
20:58 5.7 °C 3.9 °C 1027.4 hPa ESE 4.7 km/h 4.8 km/h 88% 0.0 mm 0 W/m2
21:03 5.7 °C 3.9 °C 1027.4 hPa Calm   4.8 km/h 88% 0.0 mm 0 W/m2
21:08 5.7 °C 3.9 °C 1027.4 hPa NE 3.2 km/h 3.2 km/h 88% 0.0 mm 0 W/m2
21:13 5.7 °C 3.9 °C 1027.4 hPa Calm   3.2 km/h 88% 0.0 mm 0 W/m2
21:18 5.7 °C 3.9 °C 1027.4 hPa Calm   1.6 km/h 88% 0.0 mm 0 W/m2
21:23 5.7 °C 3.9 °C 1027.4 hPa Calm     88% 0.0 mm 0 W/m2
21:28 5.7 °C 3.9 °C 1027.4 hPa Calm   4.8 km/h 88% 0.0 mm 0 W/m2
21:33 5.7 °C 3.9 °C 1027.4 hPa ESE 1.4 km/h 4.8 km/h 88% 0.0 mm 0 W/m2
21:43 5.7 °C 3.9 °C 1027.4 hPa Calm   3.2 km/h 88% 0.0 mm 0 W/m2
21:48 5.7 °C 3.9 °C 1027.4 hPa Calm   4.8 km/h 88% 0.0 mm 0 W/m2
21:53 5.7 °C 3.9 °C 1027.4 hPa Calm   3.2 km/h 88% 0.0 mm 0 W/m2
21:58 5.7 °C 3.9 °C 1027.4 hPa Calm   3.2 km/h 88% 0.0 mm 0 W/m2
22:03 5.7 °C 3.9 °C 1027.4 hPa Calm   4.8 km/h 88% 0.0 mm 0 W/m2
22:08 5.7 °C 3.9 °C 1027.1 hPa ENE 1.4 km/h 8 km/h 88% 0.0 mm 0 W/m2
22:13 5.7 °C 3.9 °C 1027.4 hPa Calm   4.8 km/h 88% 0.0 mm 0 W/m2
22:18 5.7 °C 3.9 °C 1027.1 hPa Calm   8 km/h 88% 0.0 mm 0 W/m2
22:23 5.7 °C 3.9 °C 1027.1 hPa Calm   3.2 km/h 88% 0.0 mm 0 W/m2
22:28 5.7 °C 3.9 °C 1027.1 hPa Calm   1.6 km/h 88% 0.0 mm 0 W/m2
22:33 5.6 °C 3.8 °C 1027.1 hPa Calm   3.2 km/h 88% 0.0 mm 0 W/m2
22:38 5.5 °C 3.7 °C 1027.1 hPa Calm   3.2 km/h 88% 0.0 mm 0 W/m2
22:43 5.4 °C 3.6 °C 1027.1 hPa Calm   1.6 km/h 88% 0.0 mm 0 W/m2
22:48 5.4 °C 3.7 °C 1027.1 hPa East 4.7 km/h 6.4 km/h 89% 0.0 mm 0 W/m2
22:53 5.3 °C 3.6 °C 1027.1 hPa ESE 3.2 km/h 3.2 km/h 89% 0.0 mm 0 W/m2
22:58 5.3 °C 3.6 °C 1027.1 hPa Calm   1.6 km/h 89% 0.0 mm 0 W/m2
23:03 5.2 °C 3.5 °C 1027.1 hPa ENE 3.2 km/h 6.4 km/h 89% 0.0 mm 0 W/m2
23:08 5.1 °C 3.4 °C 1027.1 hPa NNE 1.4 km/h 1.6 km/h 89% 0.0 mm 0 W/m2
23:13 5 °C 3.3 °C 1026.8 hPa Calm   1.6 km/h 89% 0.0 mm 0 W/m2
23:18 4.8 °C 3.3 °C 1026.8 hPa Calm     90% 0.0 mm 0 W/m2
23:23 4.7 °C 3.2 °C 1026.8 hPa Calm   3.2 km/h 90% 0.0 mm 0 W/m2
23:28 4.6 °C 3.1 °C 1026.8 hPa Calm   8 km/h 90% 0.0 mm 0 W/m2
23:33 4.5 °C 3 °C 1026.8 hPa SE 4.7 km/h 4.8 km/h 90% 0.0 mm 0 W/m2
23:38 4.4 °C 3.1 °C 1026.8 hPa East 1.4 km/h 4.8 km/h 91% 0.0 mm 0 W/m2
23:43 4.3 °C 3 °C 1026.8 hPa Calm   1.6 km/h 91% 0.0 mm 0 W/m2
23:48 4.3 °C 3 °C 1026.8 hPa ENE 4.7 km/h 4.8 km/h 91% 0.0 mm 0 W/m2
23:53 4.2 °C 2.9 °C 1026.8 hPa East 1.4 km/h 3.2 km/h 91% 0.0 mm 0 W/m2
23:58 4.2 °C 2.9 °C 1026.8 hPa Calm   3.2 km/h 91% 0.0 mm 0 W/m2
Juneau County Weather
Compliments of Weather Underground - 2 mb